Time;durP1;ratioP1;P1;durP2;ratioP2;P2;SDS_P1;SDS_P2;PMS_P1;PMS_P2;Temp;Humidity;BMP_temperature;BMP_pressure;BME280_temperature;BME280_humidity;BME280_pressure;Samples;Min_cycle;Max_cycle;Signal;HPM_P1;HPM_P2
2021/04/29 00:00:13;;;;;;;38.15;23.92;;;;;;;;;;5094445;28;20023;-72
2021/04/29 00:02:39;;;;;;;;;;;;;;;;;;5095336;28;20024;-72
2021/04/29 00:05:07;;;;;;;39.17;25.02;;;;;;;;;;5094964;28;19904;-72
2021/04/29 00:07:33;;;;;;;33.13;23.42;;;;;;;;;;5075847;28;20464;-71
2021/04/29 00:10:01;;;;;;;35.22;24.75;;;;;;;;;;5075942;28;20024;-72
2021/04/29 00:12:27;;;;;;;;;;;;;;;;;;5094949;28;20023;-73
2021/04/29 00:14:53;;;;;;;34.85;23.17;;;;;;;;;;5076092;28;19953;-72
2021/04/29 00:17:19;;;;;;;31.02;21.90;;;;;;;;;;5094064;28;20036;-72
2021/04/29 00:19:45;;;;;;;34.30;21.73;;;;;;;;;;5094454;28;20529;-72
2021/04/29 00:22:11;;;;;;;33.42;21.75;;;;;;;;;;5072586;28;20053;-72
2021/04/29 00:24:37;;;;;;;34.83;22.05;;;;;;;;;;5073845;28;20020;-73
2021/04/29 00:27:03;;;;;;;29.88;21.63;;;;;;;;;;5072522;28;20020;-73
2021/04/29 00:29:29;;;;;;;36.67;21.50;;;;;;;;;;5072768;28;20024;-73
2021/04/29 00:31:56;;;;;;;30.73;21.10;;;;;;;;;;5073192;28;20090;-73
2021/04/29 00:34:22;;;;;;;27.33;19.98;;;;;;;;;;5072409;28;20058;-72
2021/04/29 00:36:49;;;;;;;32.90;21.42;;;;;;;;;;5074445;28;20086;-72
2021/04/29 00:39:15;;;;;;;36.03;22.77;;;;;;;;;;5072688;28;20123;-73
2021/04/29 00:41:41;;;;;;;30.85;22.58;;;;;;;;;;5072396;28;20500;-73
2021/04/29 00:44:07;;;;;;;29.48;21.13;;;;;;;;;;5072627;28;20028;-74
2021/04/29 00:46:35;;;;;;;28.52;20.45;;;;;;;;;;5074116;28;20031;-72
2021/04/29 00:49:02;;;;;;;29.13;20.52;;;;;;;;;;5072475;28;20028;-72
2021/04/29 00:51:28;;;;;;;30.40;20.25;;;;;;;;;;5072538;28;20021;-72
2021/04/29 00:53:54;;;;;;;32.78;21.75;;;;;;;;;;5072545;28;20048;-72
2021/04/29 00:56:23;;;;;;;29.77;20.38;;;;;;;;;;5072119;28;20082;-72
2021/04/29 00:58:50;;;;;;;26.98;19.65;;;;;;;;;;5073736;28;20019;-72
2021/04/29 01:01:16;;;;;;;36.55;19.65;;;;;;;;;;5073502;28;20507;-72
2021/04/29 01:03:52;;;;;;;29.15;20.48;;;;;;;;;;5072082;28;20066;-72
2021/04/29 01:06:21;;;;;;;27.13;20.17;;;;;;;;;;5072093;28;20028;-72
2021/04/29 01:09:01;;;;;;;29.77;19.33;;;;;;;;;;5073273;28;20328;-72
2021/04/29 01:11:30;;;;;;;26.95;18.27;;;;;;;;;;5072307;28;20035;-73
2021/04/29 01:13:59;;;;;;;26.65;20.73;;;;;;;;;;5073172;28;20396;-72
2021/04/29 01:16:25;;;;;;;30.02;21.65;;;;;;;;;;5072228;28;20033;-71
2021/04/29 01:18:53;;;;;;;28.58;19.55;;;;;;;;;;5073583;28;20021;-73
2021/04/29 01:21:20;;;;;;;24.75;18.55;;;;;;;;;;5079309;28;20134;-72
2021/04/29 01:24:25;;;;;;;26.10;19.15;;;;;;;;;;5079347;28;20032;-72
2021/04/29 01:26:52;;;;;;;30.25;19.00;;;;;;;;;;4999606;28;20386;-72
2021/04/29 01:29:20;;;;;;;28.10;18.52;;;;;;;;;;4998866;28;20195;-72
2021/04/29 01:31:47;;;;;;;26.27;17.83;;;;;;;;;;5038503;28;20059;-72
2021/04/29 01:34:15;;;;;;;24.53;18.53;;;;;;;;;;5079440;28;20511;-72
2021/04/29 01:36:42;;;;;;;24.35;17.13;;;;;;;;;;5079512;28;20176;-72
2021/04/29 01:39:10;;;;;;;27.33;18.67;;;;;;;;;;5079331;28;20379;-72
2021/04/29 01:41:37;;;;;;;;;;;;;;;;;;5098112;28;20020;-72
2021/04/29 01:44:04;;;;;;;25.48;16.80;;;;;;;;;;5078971;28;20000;-72
2021/04/29 01:46:30;;;;;;;24.07;17.93;;;;;;;;;;5079110;28;20494;-73
2021/04/29 01:48:56;;;;;;;23.38;15.50;;;;;;;;;;5097450;28;20534;-73
2021/04/29 01:51:23;;;;;;;24.13;17.33;;;;;;;;;;5096979;28;20024;-73
2021/04/29 01:53:50;;;;;;;25.88;16.48;;;;;;;;;;5079493;28;20051;-72
2021/04/29 01:56:16;;;;;;;23.23;15.32;;;;;;;;;;5079413;28;20035;-73
2021/04/29 01:58:42;;;;;;;21.40;15.50;;;;;;;;;;5096542;28;20357;-71
2021/04/29 02:01:08;;;;;;;23.27;16.48;;;;;;;;;;5096788;28;20504;-72
2021/04/29 02:03:34;;;;;;;24.80;16.48;;;;;;;;;;5079101;28;20024;-72
2021/04/29 02:06:01;;;;;;;19.08;14.35;;;;;;;;;;5096379;28;20016;-72
2021/04/29 02:08:27;;;;;;;19.95;15.80;;;;;;;;;;5096922;28;20024;-72
2021/04/29 02:10:54;;;;;;;24.05;15.63;;;;;;;;;;5078699;28;20373;-72
2021/04/29 02:13:20;;;;;;;20.13;15.20;;;;;;;;;;5078355;28;20027;-71
2021/04/29 02:15:54;;;;;;;22.35;15.23;;;;;;;;;;5079190;28;20369;-71
2021/04/29 02:18:21;;;;;;;18.98;14.65;;;;;;;;;;5078474;28;20032;-72
2021/04/29 02:20:49;;;;;;;19.83;14.20;;;;;;;;;;5078209;28;20477;-72
2021/04/29 02:23:19;;;;;;;22.55;15.13;;;;;;;;;;5096156;28;20052;-72
2021/04/29 02:25:48;;;;;;;22.23;14.95;;;;;;;;;;5096387;28;20460;-74
2021/04/29 02:28:15;;;;;;;22.02;16.52;;;;;;;;;;5096594;28;20401;-72
2021/04/29 02:30:42;;;;;;;22.00;15.27;;;;;;;;;;5078031;28;20020;-72
2021/04/29 02:33:08;;;;;;;19.90;15.45;;;;;;;;;;5077674;28;20499;-72
2021/04/29 02:35:35;;;;;;;18.00;13.87;;;;;;;;;;5078300;28;20036;-72
2021/04/29 02:38:01;;;;;;;18.35;13.80;;;;;;;;;;5078132;28;20042;-74
2021/04/29 02:40:28;;;;;;;18.73;13.90;;;;;;;;;;5096059;28;20020;-73
2021/04/29 02:42:54;;;;;;;18.37;13.93;;;;;;;;;;5078132;28;20480;-73
2021/04/29 02:45:20;;;;;;;19.23;15.23;;;;;;;;;;5078042;28;20024;-72
2021/04/29 02:47:48;;;;;;;21.02;15.85;;;;;;;;;;5077739;28;20024;-72
2021/04/29 02:50:15;;;;;;;20.00;15.95;;;;;;;;;;5078010;28;20495;-73
2021/04/29 02:52:41;;;;;;;;;;;;;;;;;;5078347;28;20066;-72
2021/04/29 02:55:08;;;;;;;19.83;14.98;;;;;;;;;;5095524;28;19951;-73
2021/04/29 02:57:34;;;;;;;22.17;16.30;;;;;;;;;;5077770;28;20036;-73
2021/04/29 03:00:01;;;;;;;21.03;15.33;;;;;;;;;;5077816;28;20019;-73
2021/04/29 03:02:27;;;;;;;24.45;14.90;;;;;;;;;;5077457;28;20020;-73
2021/04/29 03:04:53;;;;;;;20.80;14.68;;;;;;;;;;5077780;28;20461;-73
2021/04/29 03:07:20;;;;;;;22.20;14.38;;;;;;;;;;5078504;28;20028;-73
2021/04/29 03:09:46;;;;;;;24.48;15.10;;;;;;;;;;5077287;28;20024;-73
2021/04/29 03:12:12;;;;;;;25.52;16.02;;;;;;;;;;5077568;28;20028;-72
2021/04/29 03:14:38;;;;;;;30.25;16.27;;;;;;;;;;5077477;28;20020;-73
2021/04/29 03:17:04;;;;;;;27.88;16.38;;;;;;;;;;5076957;28;20040;-72
2021/04/29 03:19:30;;;;;;;21.33;14.63;;;;;;;;;;5077369;28;20027;-73
2021/04/29 03:21:56;;;;;;;25.08;15.95;;;;;;;;;;5094451;28;20052;-73
2021/04/29 03:24:22;;;;;;;22.38;15.00;;;;;;;;;;5074146;28;20028;-73
2021/04/29 03:26:49;;;;;;;26.75;15.77;;;;;;;;;;5056115;28;20111;-74
2021/04/29 03:29:15;;;;;;;29.10;15.93;;;;;;;;;;5073545;28;20520;-73
2021/04/29 03:31:41;;;;;;;21.27;14.85;;;;;;;;;;5053537;28;20044;-72
2021/04/29 03:34:07;;;;;;;23.45;15.02;;;;;;;;;;5073887;28;20036;-73
2021/04/29 03:36:34;;;;;;;23.10;15.00;;;;;;;;;;5073266;28;20032;-73
2021/04/29 03:39:00;;;;;;;20.90;14.75;;;;;;;;;;5055815;28;20031;-73
2021/04/29 03:41:26;;;;;;;22.90;13.50;;;;;;;;;;5055719;28;20426;-73
2021/04/29 03:43:52;;;;;;;21.67;15.20;;;;;;;;;;5054433;28;20016;-73
2021/04/29 03:46:18;;;;;;;24.95;15.43;;;;;;;;;;5055941;28;20510;-73
2021/04/29 03:48:44;;;;;;;22.55;15.95;;;;;;;;;;5055900;28;20031;-74
2021/04/29 03:51:11;;;;;;;20.83;14.98;;;;;;;;;;5054837;28;20027;-76
2021/04/29 03:53:37;;;;;;;21.02;14.18;;;;;;;;;;5055518;28;20107;-76
2021/04/29 03:56:03;;;;;;;21.67;13.68;;;;;;;;;;5056613;28;20020;-76
2021/04/29 03:58:29;;;;;;;16.92;12.85;;;;;;;;;;5056279;28;20124;-75
2021/04/29 04:00:55;;;;;;;18.67;13.52;;;;;;;;;;5074166;28;20020;-75
2021/04/29 04:03:21;;;;;;;16.13;12.48;;;;;;;;;;5056509;28;20024;-74
2021/04/29 04:05:47;;;;;;;18.00;13.98;;;;;;;;;;5055174;28;20111;-74
2021/04/29 04:08:13;;;;;;;14.25;10.80;;;;;;;;;;5054570;28;20021;-74
2021/04/29 04:10:40;;;;;;;15.30;11.75;;;;;;;;;;5054151;28;20086;-75
2021/04/29 04:13:06;;;;;;;15.88;11.73;;;;;;;;;;5054675;28;20029;-77
2021/04/29 04:15:32;;;;;;;17.67;12.80;;;;;;;;;;5072664;28;20021;-76
2021/04/29 04:17:58;;;;;;;16.60;12.18;;;;;;;;;;5072389;28;20606;-76
2021/04/29 04:20:24;;;;;;;13.38;10.82;;;;;;;;;;5073945;28;20368;-76
2021/04/29 04:22:50;;;;;;;15.73;12.13;;;;;;;;;;5055840;28;20048;-76
2021/04/29 04:25:17;;;;;;;18.08;12.88;;;;;;;;;;5056325;28;20473;-76
2021/04/29 04:27:43;;;;;;;19.92;13.05;;;;;;;;;;5056669;28;20043;-76
2021/04/29 04:30:10;;;;;;;18.50;13.37;;;;;;;;;;5074089;28;20108;-75
2021/04/29 04:32:36;;;;;;;18.50;12.15;;;;;;;;;;5073885;28;20238;-75
2021/04/29 04:35:02;;;;;;;21.52;13.43;;;;;;;;;;5056039;28;20017;-75
2021/04/29 04:37:28;;;;;;;15.30;11.65;;;;;;;;;;5055924;28;20044;-76
2021/04/29 04:39:54;;;;;;;18.90;12.32;;;;;;;;;;5055681;28;20027;-76
2021/04/29 04:42:21;;;;;;;22.08;14.77;;;;;;;;;;5056177;28;20103;-76
2021/04/29 04:44:47;;;;;;;15.90;11.98;;;;;;;;;;5055933;28;20025;-75
2021/04/29 04:47:13;;;;;;;15.30;12.02;;;;;;;;;;5055559;28;20036;-76
2021/04/29 04:49:39;;;;;;;15.98;11.60;;;;;;;;;;5055859;28;20028;-75
2021/04/29 04:52:05;;;;;;;16.00;11.90;;;;;;;;;;5056670;28;20357;-76
2021/04/29 04:54:33;;;;;;;21.35;13.27;;;;;;;;;;5055212;28;20107;-76
2021/04/29 04:56:59;;;;;;;;;;;;;;;;;;5074376;28;20025;-74
2021/04/29 04:59:25;;;;;;;20.50;13.05;;;;;;;;;;5055867;28;20334;-74
2021/04/29 05:01:51;;;;;;;17.27;12.98;;;;;;;;;;5055428;28;20564;-74
2021/04/29 05:04:18;;;;;;;17.13;13.40;;;;;;;;;;5055699;28;20488;-74
2021/04/29 05:06:44;;;;;;;19.00;12.75;;;;;;;;;;5073353;28;20055;-74
2021/04/29 05:09:10;;;;;;;18.85;13.05;;;;;;;;;;5055692;28;20067;-76
2021/04/29 05:11:36;;;;;;;21.48;14.60;;;;;;;;;;5055694;28;20025;-75
2021/04/29 05:14:02;;;;;;;22.83;14.65;;;;;;;;;;5055695;28;20029;-74
2021/04/29 05:16:28;;;;;;;22.60;15.00;;;;;;;;;;5073279;28;20032;-75
2021/04/29 05:18:54;;;;;;;21.65;14.95;;;;;;;;;;5056399;28;20025;-75
2021/04/29 05:21:21;;;;;;;29.73;14.63;;;;;;;;;;5051844;28;20053;-74
2021/04/29 05:23:47;;;;;;;27.60;14.95;;;;;;;;;;5053479;28;20021;-74
2021/04/29 05:26:13;;;;;;;26.00;16.17;;;;;;;;;;5053729;28;20021;-74
2021/04/29 05:28:40;;;;;;;24.63;14.95;;;;;;;;;;5053135;28;20107;-75
2021/04/29 05:31:06;;;;;;;25.40;15.70;;;;;;;;;;5052163;28;20021;-75
2021/04/29 05:33:32;;;;;;;26.48;15.75;;;;;;;;;;5053362;28;20028;-74
2021/04/29 05:35:58;;;;;;;23.35;14.85;;;;;;;;;;5051822;28;20465;-74
2021/04/29 05:38:24;;;;;;;25.13;15.65;;;;;;;;;;5053232;28;20025;-74
2021/04/29 05:40:50;;;;;;;27.92;17.88;;;;;;;;;;5051691;28;20087;-73
2021/04/29 05:43:16;;;;;;;22.17;15.77;;;;;;;;;;5053267;28;20021;-75
2021/04/29 05:45:43;;;;;;;22.02;16.00;;;;;;;;;;5052003;28;20025;-74
2021/04/29 05:48:09;;;;;;;27.17;18.45;;;;;;;;;;5051682;28;20024;-72
2021/04/29 05:50:35;;;;;;;26.65;17.00;;;;;;;;;;5051677;28;20025;-72
2021/04/29 05:53:01;;;;;;;22.02;15.52;;;;;;;;;;5053398;28;20017;-73
2021/04/29 05:55:27;;;;;;;29.10;16.10;;;;;;;;;;5051961;28;20071;-69
2021/04/29 05:57:57;;;;;;;23.02;15.90;;;;;;;;;;5052806;28;20032;-69
2021/04/29 06:00:23;;;;;;;24.05;16.02;;;;;;;;;;5052794;28;20059;-71
2021/04/29 06:02:49;;;;;;;23.77;16.27;;;;;;;;;;5052215;28;20018;-73
2021/04/29 06:05:15;;;;;;;27.23;19.33;;;;;;;;;;5052026;28;20021;-73
2021/04/29 06:07:41;;;;;;;27.05;18.15;;;;;;;;;;5054530;28;20021;-72
2021/04/29 06:10:08;;;;;;;20.98;15.82;;;;;;;;;;5055160;28;20029;-67
2021/04/29 06:12:34;;;;;;;23.13;16.10;;;;;;;;;;5055494;28;20021;-75
2021/04/29 06:15:00;;;;;;;29.92;18.15;;;;;;;;;;5056778;28;20028;-75
2021/04/29 06:17:26;;;;;;;30.98;18.83;;;;;;;;;;5057964;28;20107;-76
2021/04/29 06:19:52;;;;;;;25.10;16.45;;;;;;;;;;5055896;28;20473;-73
2021/04/29 06:22:19;;;;;;;23.13;17.33;;;;;;;;;;5067832;28;20052;-76
2021/04/29 06:24:45;;;;;;;21.63;15.40;;;;;;;;;;5058440;28;20020;-69
2021/04/29 06:27:11;;;;;;;25.30;18.65;;;;;;;;;;5058422;28;20384;-67
2021/04/29 06:29:37;;;;;;;22.42;16.50;;;;;;;;;;5076297;28;20021;-68
2021/04/29 06:32:03;;;;;;;23.17;17.85;;;;;;;;;;5075679;28;20113;-70
2021/04/29 06:34:29;;;;;;;21.55;16.33;;;;;;;;;;5076315;28;20530;-70
2021/04/29 06:36:55;;;;;;;25.55;15.88;;;;;;;;;;5075838;28;20032;-72
2021/04/29 06:39:21;;;;;;;23.73;17.20;;;;;;;;;;5058018;28;20017;-73
2021/04/29 06:41:48;;;;;;;24.42;17.83;;;;;;;;;;5076106;28;20048;-72
2021/04/29 06:44:14;;;;;;;22.65;17.90;;;;;;;;;;5058071;28;20404;-71
2021/04/29 06:46:42;;;;;;;21.27;15.27;;;;;;;;;;5075424;28;20444;-67
2021/04/29 06:49:08;;;;;;;22.25;16.02;;;;;;;;;;5075983;28;20021;-67
2021/04/29 06:51:34;;;;;;;25.38;17.58;;;;;;;;;;5075888;28;20066;-65
2021/04/29 06:54:00;;;;;;;28.42;18.15;;;;;;;;;;5075280;28;20473;-67
2021/04/29 06:56:27;;;;;;;22.80;16.27;;;;;;;;;;5075747;28;20027;-65
2021/04/29 06:58:53;;;;;;;28.60;18.17;;;;;;;;;;5075732;28;20020;-66
2021/04/29 07:01:19;;;;;;;22.90;16.45;;;;;;;;;;5075737;28;20024;-66
2021/04/29 07:03:45;;;;;;;22.13;17.90;;;;;;;;;;5075736;28;20046;-64
2021/04/29 07:06:11;;;;;;;25.13;17.88;;;;;;;;;;5075056;28;20109;-66
2021/04/29 07:08:37;;;;;;;27.00;19.40;;;;;;;;;;5075792;28;20035;-65
2021/04/29 07:11:04;;;;;;;28.15;20.23;;;;;;;;;;5075216;28;20021;-64
2021/04/29 07:13:30;;;;;;;24.60;18.23;;;;;;;;;;5075244;28;20039;-66
2021/04/29 07:15:57;;;;;;;29.45;20.50;;;;;;;;;;5075407;28;20056;-64
2021/04/29 07:18:23;;;;;;;29.38;19.95;;;;;;;;;;5075365;28;20065;-65
2021/04/29 07:20:49;;;;;;;24.23;19.30;;;;;;;;;;5075081;28;20016;-66
2021/04/29 07:23:15;;;;;;;25.13;17.80;;;;;;;;;;5075173;28;20052;-67
2021/04/29 07:25:41;;;;;;;29.15;20.55;;;;;;;;;;5075844;28;20099;-65
2021/04/29 07:28:08;;;;;;;26.42;21.35;;;;;;;;;;5075161;28;20107;-66
2021/04/29 07:30:35;;;;;;;31.48;21.08;;;;;;;;;;5074917;28;20023;-66
2021/04/29 07:33:01;;;;;;;25.75;21.35;;;;;;;;;;5074869;28;20027;-65
2021/04/29 07:35:30;;;;;;;26.20;20.75;;;;;;;;;;5074738;28;20017;-65
2021/04/29 07:37:56;;;;;;;28.48;19.85;;;;;;;;;;5074910;28;20063;-64
2021/04/29 07:40:22;;;;;;;29.35;21.92;;;;;;;;;;5075185;28;20087;-65
2021/04/29 07:42:48;;;;;;;25.17;20.48;;;;;;;;;;5074577;28;20078;-64
2021/04/29 07:45:14;;;;;;;28.58;22.38;;;;;;;;;;5075027;28;20016;-66
2021/04/29 07:47:41;;;;;;;29.38;22.60;;;;;;;;;;5074667;28;20029;-66
2021/04/29 07:50:08;;;;;;;29.52;20.65;;;;;;;;;;5075019;28;20017;-66
2021/04/29 07:52:34;;;;;;;31.37;24.27;;;;;;;;;;5074435;28;20017;-66
2021/04/29 07:55:01;;;;;;;33.43;22.77;;;;;;;;;;5074389;28;20040;-65
2021/04/29 07:57:27;;;;;;;29.25;22.20;;;;;;;;;;5074526;28;20734;-67
2021/04/29 07:59:53;;;;;;;30.63;22.98;;;;;;;;;;5074556;28;20513;-66
2021/04/29 08:02:19;;;;;;;27.58;21.95;;;;;;;;;;5074466;28;20025;-68
2021/04/29 08:04:45;;;;;;;29.42;21.80;;;;;;;;;;5075013;28;20021;-67
2021/04/29 08:07:11;;;;;;;34.63;20.10;;;;;;;;;;5074745;28;20027;-66
2021/04/29 08:09:37;;;;;;;28.98;23.25;;;;;;;;;;5074106;28;20488;-66
2021/04/29 08:12:04;;;;;;;29.00;20.38;;;;;;;;;;5074047;28;20380;-68
2021/04/29 08:14:30;;;;;;;24.23;19.38;;;;;;;;;;5074079;28;20059;-65
2021/04/29 08:16:56;;;;;;;23.80;18.15;;;;;;;;;;5074026;28;20038;-67
2021/04/29 08:19:22;;;;;;;23.77;18.63;;;;;;;;;;5074516;28;20020;-66
2021/04/29 08:21:48;;;;;;;26.40;20.20;;;;;;;;;;5074090;28;20131;-66
2021/04/29 08:24:15;;;;;;;24.55;17.65;;;;;;;;;;5073817;28;20025;-66
2021/04/29 08:26:41;;;;;;;23.15;18.70;;;;;;;;;;5074114;28;20025;-68
2021/04/29 08:29:07;;;;;;;27.10;19.35;;;;;;;;;;5073546;28;20029;-66
2021/04/29 08:31:33;;;;;;;28.00;19.73;;;;;;;;;;5073777;28;20032;-68
2021/04/29 08:34:00;;;;;;;29.92;21.48;;;;;;;;;;5073746;28;20473;-66
2021/04/29 08:36:29;;;;;;;28.25;19.60;;;;;;;;;;5073943;28;20495;-65
2021/04/29 08:38:56;;;;;;;32.58;23.08;;;;;;;;;;5072968;28;20062;-67
2021/04/29 08:41:22;;;;;;;29.63;21.55;;;;;;;;;;5072390;28;20538;-67
2021/04/29 08:43:48;;;;;;;31.40;22.60;;;;;;;;;;5054151;28;20082;-65
2021/04/29 08:46:14;;;;;;;27.60;20.92;;;;;;;;;;5072576;28;20019;-65
2021/04/29 08:48:40;;;;;;;28.80;21.23;;;;;;;;;;5072365;28;20029;-64
2021/04/29 08:51:06;;;;;;;27.48;21.23;;;;;;;;;;5072173;28;20029;-65
2021/04/29 08:53:33;;;;;;;27.27;20.63;;;;;;;;;;5072339;28;20021;-65
2021/04/29 08:55:59;;;;;;;30.90;22.52;;;;;;;;;;5072325;28;20032;-66
2021/04/29 08:58:25;;;;;;;31.35;22.35;;;;;;;;;;5071673;28;20056;-67
2021/04/29 09:00:58;;;;;;;30.13;21.75;;;;;;;;;;5072548;28;20025;-66
2021/04/29 09:03:34;;;;;;;26.55;20.70;;;;;;;;;;5072271;28;20400;-66
2021/04/29 09:06:02;;;;;;;25.77;21.27;;;;;;;;;;5071974;28;20035;-66
2021/04/29 09:08:32;;;;;;;28.70;21.77;;;;;;;;;;5071964;28;20082;-68
2021/04/29 09:11:08;;;;;;;26.67;20.42;;;;;;;;;;5072293;28;20020;-67
2021/04/29 09:13:35;;;;;;;25.63;19.13;;;;;;;;;;5070832;28;20032;-69
2021/04/29 09:16:06;;;;;;;25.83;21.25;;;;;;;;;;5055578;28;20027;-66
2021/04/29 09:18:32;;;;;;;24.25;19.20;;;;;;;;;;5073484;28;20029;-68
2021/04/29 09:21:02;;;;;;;24.98;20.05;;;;;;;;;;5055072;28;20021;-63
2021/04/29 09:23:30;;;;;;;25.33;22.58;;;;;;;;;;5073565;28;20016;-65
2021/04/29 09:26:07;;;;;;;25.17;20.35;;;;;;;;;;5073135;28;20662;-64
2021/04/29 09:28:33;;;;;;;23.02;19.30;;;;;;;;;;5073478;28;20020;-65
2021/04/29 09:31:00;;;;;;;27.15;20.38;;;;;;;;;;5073428;28;20101;-64
2021/04/29 09:33:37;;;;;;;20.13;16.65;;;;;;;;;;5054950;28;20025;-67
2021/04/29 09:36:04;;;;;;;25.02;19.45;;;;;;;;;;5055397;28;20043;-65
2021/04/29 09:38:30;;;;;;;;;;;;;;;;;;5074066;28;20051;-68
2021/04/29 09:40:56;;;;;;;22.35;19.15;;;;;;;;;;5055485;28;19905;-66
2021/04/29 09:43:22;;;;;;;20.17;17.50;;;;;;;;;;5077140;28;20442;-64
2021/04/29 09:45:54;;;;;;;18.45;14.93;;;;;;;;;;5076917;28;20025;-67
2021/04/29 09:48:22;;;;;;;19.80;15.82;;;;;;;;;;5076601;28;20032;-65
2021/04/29 09:50:51;;;;;;;20.88;17.63;;;;;;;;;;5076743;28;20013;-66
2021/04/29 09:53:17;;;;;;;20.60;17.20;;;;;;;;;;5077282;28;20111;-65
2021/04/29 09:55:49;;;;;;;15.95;14.30;;;;;;;;;;5076987;28;20082;-65
2021/04/29 09:58:17;;;;;;;19.73;16.20;;;;;;;;;;5077162;28;20020;-66
2021/04/29 10:00:47;;;;;;;17.00;15.30;;;;;;;;;;5076862;28;20070;-67
2021/04/29 10:03:14;;;;;;;14.32;12.82;;;;;;;;;;5077074;28;20044;-65
2021/04/29 10:05:41;;;;;;;19.10;16.25;;;;;;;;;;5076509;28;20028;-68
2021/04/29 10:08:16;;;;;;;16.10;12.70;;;;;;;;;;5076739;28;20040;-66
2021/04/29 10:10:46;;;;;;;16.90;13.45;;;;;;;;;;5077057;28;20103;-66
2021/04/29 10:13:12;;;;;;;18.08;14.55;;;;;;;;;;5076332;28;20032;-65
2021/04/29 10:15:39;;;;;;;15.70;14.10;;;;;;;;;;5076604;28;20020;-65
2021/04/29 10:18:05;;;;;;;;;;;;;;;;;;5076907;28;20033;-66
2021/04/29 10:20:32;;;;;;;14.57;11.93;;;;;;;;;;5076374;28;20417;-66
2021/04/29 10:23:00;;;;;;;14.30;11.90;;;;;;;;;;5076941;28;20048;-69
2021/04/29 10:25:27;;;;;;;12.65;11.35;;;;;;;;;;5058093;28;20024;-70
2021/04/29 10:27:53;;;;;;;;;;;;;;;;;;5076798;28;20025;-74
2021/04/29 10:30:20;;;;;;;13.20;11.77;;;;;;;;;;5076069;28;19915;-71
2021/04/29 10:32:47;;;;;;;13.52;12.05;;;;;;;;;;5058097;28;20107;-71
2021/04/29 10:35:17;;;;;;;13.23;11.70;;;;;;;;;;5058404;28;20020;-71
2021/04/29 10:38:00;;;;;;;13.98;12.40;;;;;;;;;;5076453;28;20025;-72
2021/04/29 10:40:37;;;;;;;14.23;12.30;;;;;;;;;;5076079;28;20134;-71
2021/04/29 10:43:04;;;;;;;13.20;11.80;;;;;;;;;;5076360;28;20021;-71
2021/04/29 10:45:30;;;;;;;13.45;12.13;;;;;;;;;;5058078;28;20024;-71
2021/04/29 10:48:04;;;;;;;17.73;12.00;;;;;;;;;;5075718;28;20436;-75
2021/04/29 10:50:40;;;;;;;15.32;10.27;;;;;;;;;;5058001;28;20025;-70
2021/04/29 10:53:07;;;;;;;12.20;10.77;;;;;;;;;;5075656;28;20024;-71
2021/04/29 10:55:35;;;;;;;12.88;9.38;;;;;;;;;;5057564;28;20024;-71
2021/04/29 10:58:02;;;;;;;11.18;7.63;;;;;;;;;;5075713;28;20029;-71
2021/04/29 11:00:29;;;;;;;11.48;7.95;;;;;;;;;;5075943;28;20342;-71
2021/04/29 11:02:59;;;;;;;8.60;7.45;;;;;;;;;;5058256;28;20029;-71
2021/04/29 11:05:26;;;;;;;7.90;6.85;;;;;;;;;;5075666;28;20095;-71
2021/04/29 11:07:52;;;;;;;13.52;8.65;;;;;;;;;;5057348;28;20089;-71
2021/04/29 11:10:19;;;;;;;7.88;6.88;;;;;;;;;;5057702;28;20067;-72
2021/04/29 11:12:49;;;;;;;7.07;4.53;;;;;;;;;;5075820;28;20143;-71
2021/04/29 11:15:19;;;;;;;5.22;4.72;;;;;;;;;;5057169;28;20029;-66
2021/04/29 11:17:46;;;;;;;8.65;5.70;;;;;;;;;;5057351;28;20439;-71
2021/04/29 11:20:12;;;;;;;4.40;4.00;;;;;;;;;;5075673;28;20030;-70
2021/04/29 11:22:39;;;;;;;5.40;4.80;;;;;;;;;;5075035;28;20052;-71
2021/04/29 11:25:09;;;;;;;4.40;4.03;;;;;;;;;;5075190;28;20020;-70
2021/04/29 11:27:38;;;;;;;6.03;4.55;;;;;;;;;;5075728;28;20107;-71
2021/04/29 11:30:06;;;;;;;8.65;5.78;;;;;;;;;;5074832;28;20017;-71
2021/04/29 11:32:33;;;;;;;8.48;5.32;;;;;;;;;;5074822;28;20403;-71
2021/04/29 11:35:00;;;;;;;9.15;4.72;;;;;;;;;;5057090;28;20112;-71
2021/04/29 11:37:26;;;;;;;8.75;6.55;;;;;;;;;;5056660;28;20082;-71
2021/04/29 11:39:56;;;;;;;10.93;5.53;;;;;;;;;;5074658;28;20025;-71
2021/04/29 11:42:24;;;;;;;7.40;5.10;;;;;;;;;;5056708;28;20025;-72
2021/04/29 11:44:50;;;;;;;8.50;5.93;;;;;;;;;;5056982;28;20021;-72
2021/04/29 11:47:16;;;;;;;8.60;5.60;;;;;;;;;;5075138;28;20058;-71
2021/04/29 11:49:42;;;;;;;5.45;4.85;;;;;;;;;;5074500;28;20563;-71
2021/04/29 11:52:08;;;;;;;6.38;4.57;;;;;;;;;;5056862;28;20444;-70
2021/04/29 11:54:35;;;;;;;5.45;3.72;;;;;;;;;;5074684;28;20021;-71
2021/04/29 11:57:02;;;;;;;6.03;4.00;;;;;;;;;;5074301;28;20354;-71
2021/04/29 11:59:31;;;;;;;8.63;4.55;;;;;;;;;;5074221;28;20052;-71
2021/04/29 12:01:59;;;;;;;7.07;3.55;;;;;;;;;;5056631;28;20025;-71
2021/04/29 12:04:25;;;;;;;5.53;3.75;;;;;;;;;;5073754;28;20016;-72
2021/04/29 12:06:51;;;;;;;6.38;3.75;;;;;;;;;;5074172;28;20029;-73
2021/04/29 12:09:17;;;;;;;12.02;9.07;;;;;;;;;;5074114;28;20025;-69
2021/04/29 12:11:44;;;;;;;4.22;3.00;;;;;;;;;;5073748;28;20497;-71
2021/04/29 12:14:13;;;;;;;3.83;2.15;;;;;;;;;;5056364;28;20059;-70
2021/04/29 12:16:39;;;;;;;5.18;2.45;;;;;;;;;;5074222;28;20025;-66
2021/04/29 12:19:05;;;;;;;3.43;1.43;;;;;;;;;;5073732;28;20028;-70
2021/04/29 12:21:33;;;;;;;5.90;2.77;;;;;;;;;;5074094;28;20319;-70
2021/04/29 12:24:04;;;;;;;4.97;2.88;;;;;;;;;;5074300;28;20024;-70
2021/04/29 12:26:48;;;;;;;2.42;1.70;;;;;;;;;;5073587;28;20024;-69
2021/04/29 12:29:18;;;;;;;5.35;2.05;;;;;;;;;;5074352;28;20473;-70
2021/04/29 12:31:53;;;;;;;2.53;1.73;;;;;;;;;;5074296;28;20055;-70
2021/04/29 12:34:20;;;;;;;3.42;2.03;;;;;;;;;;5074046;28;20024;-75
2021/04/29 12:37:01;;;;;;;5.95;1.58;;;;;;;;;;5073884;28;20099;-74
2021/04/29 12:39:29;;;;;;;1.08;1.08;;;;;;;;;;5073788;28;20028;-73
2021/04/29 12:41:59;;;;;;;2.33;1.90;;;;;;;;;;5055903;28;20477;-74
2021/04/29 12:44:45;;;;;;;8.48;4.78;;;;;;;;;;5074419;28;20033;-75
2021/04/29 12:47:37;;;;;;;43.45;38.83;;;;;;;;;;5055681;28;20025;-73
2021/04/29 12:50:05;;;;;;;2.78;2.50;;;;;;;;;;5070768;28;20071;-73
2021/04/29 12:52:32;;;;;;;5.85;2.90;;;;;;;;;;5055453;28;20031;-74
2021/04/29 12:54:58;;;;;;;7.55;3.88;;;;;;;;;;5055788;28;20024;-74
2021/04/29 12:57:26;;;;;;;5.47;2.25;;;;;;;;;;5055702;28;20092;-74
2021/04/29 12:59:53;;;;;;;5.43;3.00;;;;;;;;;;5073430;28;20024;-74
2021/04/29 13:02:23;;;;;;;8.30;4.32;;;;;;;;;;5073663;28;20029;-73
2021/04/29 13:05:02;;;;;;;21.67;18.50;;;;;;;;;;5073717;28;20023;-74
2021/04/29 13:07:29;;;;;;;13.90;6.72;;;;;;;;;;5055476;28;20047;-74
2021/04/29 13:09:55;;;;;;;7.13;3.85;;;;;;;;;;5073342;28;20505;-72
2021/04/29 13:12:22;;;;;;;6.50;3.15;;;;;;;;;;5055596;28;20045;-73
2021/04/29 13:14:58;;;;;;;7.57;3.33;;;;;;;;;;5055245;28;20473;-73
2021/04/29 13:17:25;;;;;;;5.80;3.38;;;;;;;;;;5077739;28;20036;-75
2021/04/29 13:20:08;;;;;;;5.25;2.70;;;;;;;;;;5059640;28;20078;-75
2021/04/29 13:22:36;;;;;;;5.95;3.28;;;;;;;;;;5059308;28;20049;-71
2021/04/29 13:25:06;;;;;;;8.32;3.33;;;;;;;;;;5059607;28;20021;-71
2021/04/29 13:27:33;;;;;;;9.75;4.05;;;;;;;;;;5077231;28;20039;-72
2021/04/29 13:29:59;;;;;;;10.05;5.40;;;;;;;;;;5077482;28;20021;-70
2021/04/29 13:32:28;;;;;;;6.57;3.78;;;;;;;;;;5059457;28;20063;-71
2021/04/29 13:34:54;;;;;;;6.20;4.40;;;;;;;;;;5059116;28;20025;-70
2021/04/29 13:37:20;;;;;;;5.97;3.22;;;;;;;;;;5077046;28;20029;-70
2021/04/29 13:39:46;;;;;;;5.03;3.27;;;;;;;;;;5077309;28;20029;-71
2021/04/29 13:42:12;;;;;;;3.47;2.67;;;;;;;;;;5058920;28;20254;-70
2021/04/29 13:44:39;;;;;;;6.23;3.40;;;;;;;;;;5077195;28;20023;-71
2021/04/29 13:47:06;;;;;;;8.55;5.93;;;;;;;;;;5077083;28;20038;-71
2021/04/29 13:49:35;;;;;;;29.50;26.30;;;;;;;;;;5076783;28;20043;-70
2021/04/29 13:52:01;;;;;;;7.53;2.80;;;;;;;;;;5076953;28;20028;-70
2021/04/29 13:54:27;;;;;;;6.80;2.30;;;;;;;;;;5077087;28;20020;-71
2021/04/29 13:56:53;;;;;;;6.40;2.55;;;;;;;;;;5076651;28;20242;-70
2021/04/29 13:59:19;;;;;;;6.78;2.53;;;;;;;;;;5059616;28;20025;-71
2021/04/29 14:01:48;;;;;;;5.27;2.37;;;;;;;;;;5076451;28;20380;-70
2021/04/29 14:04:14;;;;;;;5.68;3.13;;;;;;;;;;5058415;28;20024;-72
2021/04/29 14:06:40;;;;;;;7.88;3.70;;;;;;;;;;5076393;28;20024;-70
2021/04/29 14:09:06;;;;;;;7.25;4.00;;;;;;;;;;5058673;28;20055;-72
2021/04/29 14:11:33;;;;;;;6.10;2.75;;;;;;;;;;5076353;28;20096;-70
2021/04/29 14:13:59;;;;;;;6.43;3.92;;;;;;;;;;5058686;28;20029;-71
2021/04/29 14:16:25;;;;;;;6.32;2.95;;;;;;;;;;5076277;28;20419;-71
2021/04/29 14:18:51;;;;;;;7.03;2.00;;;;;;;;;;5076521;28;20024;-72
2021/04/29 14:21:17;;;;;;;6.10;3.13;;;;;;;;;;5058897;28;20048;-72
2021/04/29 14:23:45;;;;;;;5.40;2.43;;;;;;;;;;5058284;28;20024;-71
2021/04/29 14:26:11;;;;;;;4.70;2.92;;;;;;;;;;5058489;28;20024;-70